Rugby, North Dakota
Current Conditions -  °F | °C
As of 10:15 PM on Tuesday 25 Nov 2014 (Local Time) from KRUG Reporting Station
Overcast Overcast  
Wind Chill: -25°   Ceiling: 800
Heat Index: -15°   Visibility: 10mi
Dew Point: -17°   Wind: 15mph
Humidity: 85%   Direction: 40°NE
Pressure: 30.13"   Gusts: NA
Location:  48.37°N, 100°W
Report Text: KRUG 260415Z AUTO 04013KT 10SM OVC008 M15/M17 A3013 RMK AO2
Loading
Personal Weather Stations






























Interactive Weather Map New forecast layout! Learn more

10-Day Weather Forecast

Advertisements
Track Severe Weather on mobile